Time;durP1;ratioP1;P1;durP2;ratioP2;P2;SDS_P1;SDS_P2;PMS_P1;PMS_P2;Temp;Humidity;BMP_temperature;BMP_pressure;BME280_temperature;BME280_humidity;BME280_pressure;Samples;Min_cycle;Max_cycle;Signal;HPM_P1;HPM_P2
2022/08/21 00:00:42;;;;;;;21.50;4.75;;;16.90;99.90;;;;;;5068315;28;20044;-83
2022/08/21 00:03:12;;;;;;;17.88;4.80;;;17.00;99.90;;;;;;5119440;27;20044;-83
2022/08/21 00:05:46;;;;;;;13.20;5.07;;;17.00;99.90;;;;;;5086607;28;20059;-83
2022/08/21 00:08:14;;;;;;;13.60;3.40;;;17.00;99.90;;;;;;5068408;28;20057;-82
2022/08/21 00:10:43;;;;;;;9.77;4.15;;;17.00;99.90;;;;;;5067587;28;20319;-83
2022/08/21 00:13:12;;;;;;;9.07;3.67;;;17.00;99.90;;;;;;5072189;28;20047;-83
2022/08/21 00:15:46;;;;;;;13.00;3.42;;;17.00;99.90;;;;;;5086576;28;20036;-84
2022/08/21 00:18:14;;;;;;;15.30;4.30;;;17.00;99.90;;;;;;5069964;28;20049;-83
2022/08/21 00:20:43;;;;;;;25.13;5.35;;;17.00;99.90;;;;;;5076691;28;20052;-83
2022/08/21 00:23:11;;;;;;;10.68;3.90;;;17.00;99.90;;;;;;5086124;28;20048;-84
2022/08/21 00:25:42;;;;;;;11.00;3.10;;;17.00;99.90;;;;;;5069438;28;20055;-85
2022/08/21 00:28:10;;;;;;;12.95;3.65;;;17.00;99.90;;;;;;5061939;28;20591;-84
2022/08/21 00:30:39;;;;;;;17.30;3.67;;;16.90;99.90;;;;;;5086967;28;20502;-84
2022/08/21 00:33:10;;;;;;;14.73;4.00;;;16.90;99.90;;;;;;5049391;28;20045;-84
2022/08/21 00:35:40;;;;;;;12.50;3.33;;;16.90;99.90;;;;;;5068146;28;20490;-85
2022/08/21 00:38:09;;;;;;;8.75;3.58;;;16.90;99.90;;;;;;5068413;28;20214;-83
2022/08/21 00:40:48;;;;;;;11.45;3.35;;;16.90;99.90;;;;;;5066421;28;20060;-84
2022/08/21 00:43:19;;;;;;;9.75;4.93;;;16.90;99.90;;;;;;5066122;28;20055;-83
2022/08/21 00:45:47;;;;;;;16.90;4.15;;;16.90;99.90;;;;;;5067139;28;20037;-83
2022/08/21 00:48:16;;;;;;;21.55;4.05;;;16.90;99.90;;;;;;5066157;28;20044;-84
2022/08/21 00:51:02;;;;;;;14.88;4.10;;;16.90;99.90;;;;;;5067633;28;20036;-83
2022/08/21 00:53:30;;;;;;;13.35;3.28;;;16.80;99.90;;;;;;5049960;28;20056;-83
2022/08/21 00:56:02;;;;;;;19.67;4.93;;;16.80;99.90;;;;;;5049986;28;20048;-84
2022/08/21 00:58:32;;;;;;;13.55;3.58;;;16.80;99.90;;;;;;5051814;28;20049;-84
2022/08/21 01:01:04;;;;;;;11.25;3.75;;;16.80;99.90;;;;;;5067171;28;20048;-83
2022/08/21 01:03:36;;;;;;;18.92;5.25;;;16.70;99.90;;;;;;5056269;28;20610;-84
2022/08/21 01:06:05;;;;;;;8.98;3.25;;;16.70;99.90;;;;;;5049750;28;20052;-83
2022/08/21 01:08:33;;;;;;;19.27;5.25;;;16.70;99.90;;;;;;5050640;28;20136;-83
2022/08/21 01:11:02;;;;;;;16.85;4.30;;;16.70;99.90;;;;;;5051256;28;20419;-83
2022/08/21 01:13:33;;;;;;;12.32;3.30;;;16.60;99.90;;;;;;5034225;28;20048;-83
2022/08/21 01:16:04;;;;;;;11.60;4.20;;;16.60;99.90;;;;;;5051514;28;20052;-83
2022/08/21 01:18:32;;;;;;;9.98;4.18;;;16.60;99.90;;;;;;5049883;28;20060;-82
2022/08/21 01:21:24;;;;;;;14.48;3.25;;;16.60;99.90;;;;;;5050639;28;20049;-84
2022/08/21 01:23:56;;;;;;;11.77;3.42;;;16.50;99.90;;;;;;5050738;28;20052;-83
2022/08/21 01:26:30;;;;;;;22.88;4.07;;;16.50;99.90;;;;;;5033728;28;20059;-85
2022/08/21 01:29:22;;;;;;;20.77;3.58;;;16.50;99.90;;;;;;5035379;28;20045;-85
2022/08/21 01:31:50;;;;;;;14.15;4.47;;;16.40;99.90;;;;;;5029882;28;20045;-85
2022/08/21 01:34:18;;;;;;;10.93;4.80;;;16.40;99.90;;;;;;5048932;28;20053;-85
2022/08/21 01:36:47;;;;;;;17.33;3.63;;;16.40;99.90;;;;;;5052424;28;20601;-85
2022/08/21 01:39:16;;;;;;;19.77;5.43;;;16.40;99.90;;;;;;5051592;28;20041;-84
2022/08/21 01:41:44;;;;;;;12.15;3.67;;;16.30;99.90;;;;;;5052147;28;20418;-84
2022/08/21 01:44:12;;;;;;;10.88;4.43;;;16.30;99.90;;;;;;5052415;28;20154;-83
2022/08/21 01:46:39;;;;;;;16.15;5.05;;;16.30;99.90;;;;;;5053939;28;20065;-84
2022/08/21 01:49:07;;;;;;;9.68;3.53;;;16.30;99.90;;;;;;4696709;28;10000247;-84
2022/08/21 01:51:35;;;;;;;18.27;4.72;;;16.30;99.90;;;;;;5062216;28;20452;-84
2022/08/21 01:54:03;;;;;;;18.80;5.45;;;16.30;99.90;;;;;;5033983;28;20049;-84
2022/08/21 01:56:37;;;;;;;11.82;6.07;;;16.30;99.90;;;;;;5053910;28;20055;-84
2022/08/21 01:59:05;;;;;;;17.75;4.20;;;16.30;99.90;;;;;;5049273;28;20037;-84
2022/08/21 02:01:32;;;;;;;20.23;4.65;;;16.30;99.90;;;;;;5048926;28;20053;-84
2022/08/21 02:04:00;;;;;;;8.52;3.30;;;16.30;99.90;;;;;;5029685;28;20041;-84
2022/08/21 02:06:28;;;;;;;12.20;5.03;;;16.20;99.90;;;;;;5036375;28;20068;-84
2022/08/21 02:08:56;;;;;;;11.73;4.20;;;16.20;99.90;;;;;;5036584;28;20057;-84
2022/08/21 02:11:24;;;;;;;11.88;4.05;;;16.20;99.90;;;;;;5053405;28;20527;-84
2022/08/21 02:13:52;;;;;;;10.30;3.80;;;16.20;99.90;;;;;;5035458;28;20052;-84
2022/08/21 02:16:19;;;;;;;12.07;4.40;;;16.20;99.90;;;;;;5036022;28;20056;-84
2022/08/21 02:18:47;;;;;;;12.15;4.20;;;16.20;99.90;;;;;;5051653;28;20060;-84
2022/08/21 02:21:15;;;;;;;19.08;5.43;;;16.20;99.90;;;;;;5051353;28;20503;-84
2022/08/21 02:23:43;;;;;;;10.95;3.00;;;16.20;99.90;;;;;;5068016;28;20044;-85
2022/08/21 02:26:12;;;;;;;17.52;5.00;;;16.20;99.90;;;;;;5051124;28;20590;-84
2022/08/21 02:28:40;;;;;;;11.52;3.83;;;16.20;99.90;;;;;;5034802;28;20040;-84
2022/08/21 02:31:08;;;;;;;17.70;4.47;;;16.20;99.90;;;;;;5018299;28;20049;-84
2022/08/21 02:33:38;;;;;;;18.55;6.15;;;16.20;99.90;;;;;;5056260;28;20495;-85
2022/08/21 02:36:07;;;;;;;10.70;2.85;;;16.20;99.90;;;;;;5034938;28;20076;-84
2022/08/21 02:38:40;;;;;;;15.68;3.58;;;16.20;99.90;;;;;;5067432;28;20060;-84
2022/08/21 02:41:12;;;;;;;17.27;4.60;;;16.30;99.90;;;;;;5034317;28;20055;-82
2022/08/21 02:43:41;;;;;;;18.02;5.53;;;16.20;99.90;;;;;;5035351;28;20072;-84
2022/08/21 02:46:11;;;;;;;20.60;5.28;;;16.30;99.90;;;;;;5050323;28;20049;-84
2022/08/21 02:48:39;;;;;;;14.90;4.15;;;16.30;99.90;;;;;;5049454;28;20052;-84
2022/08/21 02:51:19;;;;;;;14.60;4.93;;;16.30;99.90;;;;;;5027190;28;20041;-84
2022/08/21 02:53:48;;;;;;;12.73;4.28;;;16.30;99.90;;;;;;5044818;28;20045;-84
2022/08/21 02:56:21;;;;;;;13.18;3.78;;;16.30;99.90;;;;;;5050712;28;22084;-84
2022/08/21 02:58:51;;;;;;;14.00;3.92;;;16.30;99.90;;;;;;5048946;28;20041;-84
2022/08/21 03:01:21;;;;;;;18.13;5.50;;;16.30;99.90;;;;;;5035655;28;20056;-83
2022/08/21 03:03:52;;;;;;;16.70;3.75;;;16.30;99.90;;;;;;5015881;28;20049;-84
2022/08/21 03:06:21;;;;;;;19.90;4.73;;;16.30;99.90;;;;;;5047848;28;20048;-83
2022/08/21 03:08:50;;;;;;;16.73;3.92;;;16.30;99.90;;;;;;5047739;28;20036;-83
2022/08/21 03:11:20;;;;;;;19.02;3.47;;;16.30;99.90;;;;;;5048305;28;20148;-83
2022/08/21 03:13:48;;;;;;;17.90;4.15;;;16.30;99.90;;;;;;5048567;28;20064;-83
2022/08/21 03:16:16;;;;;;;22.52;4.45;;;16.30;99.90;;;;;;5050240;28;20059;-83
2022/08/21 03:18:43;;;;;;;15.68;4.20;;;16.30;99.90;;;;;;5068801;28;20049;-84
2022/08/21 03:21:12;;;;;;;11.70;3.90;;;16.30;99.90;;;;;;5052126;28;20045;-84
2022/08/21 03:23:41;;;;;;;11.85;3.60;;;16.20;99.90;;;;;;5050011;28;20048;-84
2022/08/21 03:26:11;;;;;;;18.30;3.70;;;16.20;99.90;;;;;;5065825;28;20041;-84
2022/08/21 03:28:39;;;;;;;16.17;3.15;;;16.20;99.90;;;;;;5050567;28;20060;-83
2022/08/21 03:31:06;;;;;;;12.80;3.40;;;16.20;99.90;;;;;;5050014;28;20049;-83
2022/08/21 03:33:34;;;;;;;12.60;4.25;;;16.10;99.90;;;;;;5050149;28;20067;-83
2022/08/21 03:36:05;;;;;;;10.40;3.83;;;16.10;99.90;;;;;;5068409;28;20041;-84
2022/08/21 03:38:35;;;;;;;9.57;4.15;;;16.10;99.90;;;;;;5051258;28;20041;-84
2022/08/21 03:41:04;;;;;;;18.38;6.80;;;16.00;99.90;;;;;;5051360;28;20053;-83
2022/08/21 03:43:32;;;;;;;10.27;3.83;;;16.10;99.90;;;;;;5049744;28;20063;-83
2022/08/21 03:46:01;;;;;;;14.57;3.35;;;16.00;99.90;;;;;;5047637;28;20041;-84
2022/08/21 03:48:30;;;;;;;12.20;3.95;;;15.90;99.90;;;;;;5048908;28;20049;-83
2022/08/21 03:50:58;;;;;;;11.55;3.85;;;16.00;99.90;;;;;;5033556;28;20075;-84
2022/08/21 03:53:26;;;;;;;12.68;3.53;;;15.90;99.90;;;;;;5049997;28;20049;-84
2022/08/21 03:55:54;;;;;;;15.40;3.83;;;15.90;99.90;;;;;;5040722;28;20116;-84
2022/08/21 03:58:25;;;;;;;12.90;3.47;;;15.90;99.90;;;;;;5050049;28;20045;-84
2022/08/21 04:00:56;;;;;;;12.88;3.92;;;15.90;99.90;;;;;;5067215;28;20403;-85
2022/08/21 04:03:26;;;;;;;18.60;4.22;;;15.80;99.90;;;;;;5032633;28;20492;-83
2022/08/21 04:05:53;;;;;;;12.80;3.75;;;15.80;99.90;;;;;;5050334;28;20404;-83
2022/08/21 04:08:21;;;;;;;15.90;3.88;;;15.80;99.90;;;;;;5051017;28;20033;-83
2022/08/21 04:10:53;;;;;;;9.75;3.40;;;15.80;99.90;;;;;;5049522;28;20081;-84
2022/08/21 04:13:21;;;;;;;23.05;6.03;;;15.80;99.90;;;;;;5064525;28;20041;-84
2022/08/21 04:15:49;;;;;;;14.38;3.92;;;15.80;99.90;;;;;;5049541;28;20044;-84
2022/08/21 04:18:17;;;;;;;18.35;4.65;;;15.80;99.90;;;;;;5035634;28;20045;-84
2022/08/21 04:20:48;;;;;;;20.33;4.85;;;15.80;99.90;;;;;;5049960;28;20056;-83
2022/08/21 04:23:23;;;;;;;13.50;4.45;;;15.70;99.90;;;;;;5050113;28;20139;-84
2022/08/21 04:25:52;;;;;;;14.30;4.22;;;15.70;99.90;;;;;;5065274;28;20056;-84
2022/08/21 04:28:22;;;;;;;21.52;4.30;;;15.70;99.90;;;;;;5049278;28;20048;-84
2022/08/21 04:30:56;;;;;;;16.45;4.22;;;15.70;99.90;;;;;;5050415;28;20057;-84
2022/08/21 04:33:26;;;;;;;11.75;3.92;;;15.70;99.90;;;;;;5034097;28;20228;-84
2022/08/21 04:35:54;;;;;;;11.18;3.63;;;15.70;99.90;;;;;;5033322;28;20626;-85
2022/08/21 04:38:23;;;;;;;12.05;4.57;;;15.70;99.90;;;;;;5051117;28;20049;-84
2022/08/21 04:40:52;;;;;;;14.05;3.95;;;15.70;99.90;;;;;;5021319;28;20116;-83
2022/08/21 04:43:23;;;;;;;13.10;4.45;;;15.70;99.90;;;;;;5052019;28;20548;-84
2022/08/21 04:45:51;;;;;;;14.43;4.22;;;15.70;99.90;;;;;;5053217;28;20049;-84
2022/08/21 04:48:23;;;;;;;18.65;8.15;;;15.70;99.90;;;;;;5036113;28;20052;-84
2022/08/21 04:50:54;;;;;;;38.78;5.78;;;15.70;99.90;;;;;;5037024;28;20056;-83
2022/08/21 04:53:36;;;;;;;15.45;4.43;;;15.70;99.90;;;;;;5036155;28;20049;-84
2022/08/21 04:56:11;;;;;;;15.95;4.22;;;15.60;99.90;;;;;;5053825;28;20045;-84
2022/08/21 04:58:41;;;;;;;8.38;3.28;;;15.60;99.90;;;;;;5070224;28;20159;-84
2022/08/21 05:01:18;;;;;;;17.38;3.83;;;15.60;99.90;;;;;;5039195;28;20067;-83
2022/08/21 05:03:48;;;;;;;11.18;3.95;;;15.60;99.90;;;;;;5023389;28;20419;-84
2022/08/21 05:06:17;;;;;;;15.75;4.10;;;15.60;99.90;;;;;;5058420;28;20045;-83
2022/08/21 05:08:51;;;;;;;15.50;4.47;;;15.60;99.90;;;;;;5060411;28;20044;-85
2022/08/21 05:11:30;;;;;;;15.60;4.37;;;15.60;99.90;;;;;;5045199;28;20049;-84
2022/08/21 05:13:58;;;;;;;13.20;4.50;;;15.60;99.90;;;;;;5024803;28;20305;-84
2022/08/21 05:16:26;;;;;;;18.13;4.25;;;15.60;99.90;;;;;;5035027;28;20052;-86
2022/08/21 05:19:05;;;;;;;14.52;4.70;;;15.50;99.90;;;;;;5032924;28;20056;-84
2022/08/21 05:21:34;;;;;;;14.98;4.18;;;15.50;99.90;;;;;;5041214;28;20079;-83
2022/08/21 05:24:03;;;;;;;17.27;5.07;;;15.50;99.90;;;;;;5039478;28;20056;-83
2022/08/21 05:26:31;;;;;;;13.18;3.60;;;15.60;99.90;;;;;;5055419;28;20048;-84
2022/08/21 05:29:00;;;;;;;12.48;4.88;;;15.60;99.90;;;;;;5037306;28;20053;-84
2022/08/21 05:31:29;;;;;;;12.35;4.05;;;15.60;99.90;;;;;;5053294;28;21120;-84
2022/08/21 05:33:57;;;;;;;14.80;5.05;;;15.60;99.90;;;;;;5019663;28;20387;-84
2022/08/21 05:36:25;;;;;;;12.07;3.85;;;15.60;99.90;;;;;;5056137;28;20044;-84
2022/08/21 05:38:53;;;;;;;15.90;3.83;;;15.70;99.90;;;;;;5039094;28;20064;-84
2022/08/21 05:41:22;;;;;;;12.95;3.72;;;15.70;99.90;;;;;;5057502;28;20045;-83
2022/08/21 05:43:50;;;;;;;13.45;4.15;;;15.80;99.90;;;;;;5057339;28;20053;-83
2022/08/21 05:46:17;;;;;;;8.50;4.38;;;15.80;99.90;;;;;;5054661;28;20487;-83
2022/08/21 05:48:46;;;;;;;16.63;4.97;;;15.90;99.90;;;;;;5053894;28;20041;-83
2022/08/21 05:51:15;;;;;;;18.98;4.32;;;15.90;99.90;;;;;;5035059;28;20053;-83
2022/08/21 05:53:43;;;;;;;14.98;5.35;;;15.90;99.90;;;;;;5032723;28;20488;-82
2022/08/21 05:56:13;;;;;;;12.80;3.95;;;16.00;99.90;;;;;;5057302;28;20056;-83
2022/08/21 05:58:41;;;;;;;20.63;4.80;;;16.00;99.90;;;;;;5055305;28;20052;-83
2022/08/21 06:01:10;;;;;;;8.43;3.28;;;16.00;99.90;;;;;;5038219;28;20056;-83
2022/08/21 06:03:39;;;;;;;15.77;4.47;;;16.00;99.90;;;;;;5055875;28;20048;-84
2022/08/21 06:06:08;;;;;;;23.08;5.70;;;16.00;99.90;;;;;;5034505;28;20087;-83
2022/08/21 06:08:36;;;;;;;17.15;5.97;;;16.10;99.90;;;;;;5048533;28;20052;-83
2022/08/21 06:11:05;;;;;;;16.40;4.70;;;16.10;99.90;;;;;;5031492;28;20057;-83
2022/08/21 06:13:34;;;;;;;10.38;3.55;;;16.10;99.90;;;;;;5048883;28;20060;-83
2022/08/21 06:16:12;;;;;;;10.93;3.35;;;16.20;99.90;;;;;;5048996;28;20045;-83
2022/08/21 06:18:44;;;;;;;10.13;3.47;;;16.20;99.90;;;;;;5049179;28;20049;-83
2022/08/21 06:21:13;;;;;;;13.82;3.28;;;16.20;99.90;;;;;;5048085;28;20049;-84
2022/08/21 06:23:42;;;;;;;17.88;4.45;;;16.20;99.90;;;;;;5050995;28;20480;-83
2022/08/21 06:26:14;;;;;;;11.88;4.47;;;16.30;99.90;;;;;;5051464;28;20049;-83
2022/08/21 06:28:42;;;;;;;10.68;3.60;;;16.40;99.90;;;;;;5053670;28;20061;-83
2022/08/21 06:31:12;;;;;;;17.42;3.63;;;16.40;99.90;;;;;;5054894;28;20511;-83
2022/08/21 06:33:40;;;;;;;11.55;3.80;;;16.50;99.90;;;;;;5052605;28;20100;-84
2022/08/21 06:36:07;;;;;;;11.15;3.20;;;16.60;99.90;;;;;;5050862;28;20065;-84
2022/08/21 06:38:36;;;;;;;16.05;6.68;;;16.50;99.90;;;;;;5031702;28;20045;-85
2022/08/21 06:41:07;;;;;;;11.52;2.55;;;16.60;99.90;;;;;;5043409;28;20044;-85
2022/08/21 06:43:37;;;;;;;14.20;3.92;;;16.70;99.90;;;;;;5031743;28;20044;-85
2022/08/21 06:46:07;;;;;;;13.98;3.50;;;16.70;99.90;;;;;;5052685;28;20052;-84
2022/08/21 06:48:35;;;;;;;17.50;3.88;;;16.80;99.90;;;;;;5051340;28;20052;-85
2022/08/21 06:51:03;;;;;;;10.98;3.72;;;16.90;99.90;;;;;;5036805;28;20045;-85
2022/08/21 06:53:31;;;;;;;15.95;3.17;;;16.90;99.90;;;;;;5064895;28;20052;-85
2022/08/21 06:55:59;;;;;;;7.68;3.08;;;17.00;99.90;;;;;;5056319;28;20040;-84
2022/08/21 06:58:26;;;;;;;19.42;3.28;;;17.10;99.90;;;;;;5049890;28;20053;-85
2022/08/21 07:00:56;;;;;;;14.32;2.95;;;17.10;99.90;;;;;;5051866;28;20408;-85
2022/08/21 07:03:36;;;;;;;14.68;5.97;;;17.20;99.90;;;;;;5049410;28;20045;-85
2022/08/21 07:06:06;;;;;;;20.92;4.65;;;17.30;99.90;;;;;;5049458;28;20052;-85
2022/08/21 07:08:39;;;;;;;14.75;3.78;;;17.30;99.90;;;;;;5039933;28;20036;-85
2022/08/21 07:11:21;;;;;;;12.80;4.65;;;17.40;99.90;;;;;;5051949;28;20059;-84
2022/08/21 07:13:50;;;;;;;14.48;3.40;;;17.50;99.90;;;;;;5031986;28;20060;-85
2022/08/21 07:16:19;;;;;;;11.00;3.05;;;17.60;99.90;;;;;;5048383;28;20049;-85
2022/08/21 07:18:48;;;;;;;15.52;4.82;;;17.70;99.90;;;;;;5048265;28;20048;-85
2022/08/21 07:21:16;;;;;;;10.38;3.03;;;17.80;99.90;;;;;;5047008;28;20045;-84
2022/08/21 07:23:49;;;;;;;18.52;4.65;;;17.90;99.90;;;;;;5047595;28;20041;-85
2022/08/21 07:26:21;;;;;;;12.18;2.80;;;17.90;99.90;;;;;;5047262;28;20052;-85
2022/08/21 07:28:50;;;;;;;12.05;3.45;;;18.10;99.90;;;;;;5046908;28;20041;-85
2022/08/21 07:31:21;;;;;;;10.55;2.90;;;18.20;99.90;;;;;;5047527;28;20052;-85
2022/08/21 07:33:49;;;;;;;13.05;4.60;;;18.30;99.90;;;;;;5029355;28;20044;-84
2022/08/21 07:36:17;;;;;;;13.88;2.92;;;18.30;99.90;;;;;;5047667;28;20045;-85
2022/08/21 07:38:45;;;;;;;17.88;3.47;;;18.40;99.90;;;;;;5047594;28;20045;-85
2022/08/21 07:41:19;;;;;;;18.83;6.05;;;18.30;99.90;;;;;;5046413;28;20916;-84
2022/08/21 07:43:47;;;;;;;14.10;3.30;;;18.40;99.90;;;;;;5035522;28;20049;-85
2022/08/21 07:46:15;;;;;;;8.52;5.07;;;18.40;99.90;;;;;;5031112;28;20637;-85
2022/08/21 07:48:43;;;;;;;18.55;4.00;;;18.50;99.90;;;;;;5056740;28;20056;-85
2022/08/21 07:51:13;;;;;;;19.42;3.72;;;18.50;99.90;;;;;;5068862;28;20049;-85
2022/08/21 07:53:42;;;;;;;14.10;3.28;;;18.60;99.90;;;;;;5055150;28;20041;-85
2022/08/21 07:56:10;;;;;;;11.63;3.30;;;18.60;99.80;;;;;;5044107;28;20067;-85
2022/08/21 07:58:38;;;;;;;13.38;3.67;;;18.60;99.70;;;;;;5060255;28;20052;-85
2022/08/21 08:01:06;;;;;;;12.90;3.60;;;18.60;99.60;;;;;;5057580;28;20053;-84
2022/08/21 08:03:34;;;;;;;16.45;2.60;;;18.70;99.50;;;;;;5051464;28;20049;-85
2022/08/21 08:06:04;;;;;;;12.68;2.33;;;18.70;99.50;;;;;;5053310;28;20056;-85
2022/08/21 08:08:32;;;;;;;18.63;4.20;;;18.70;99.40;;;;;;5052329;28;20049;-85
2022/08/21 08:11:01;;;;;;;15.90;4.80;;;18.80;99.30;;;;;;5054308;28;20064;-84
2022/08/21 08:13:29;;;;;;;14.30;3.10;;;18.90;99.10;;;;;;5041448;28;20053;-84
2022/08/21 08:15:56;;;;;;;18.70;4.65;;;18.90;98.90;;;;;;5054418;28;20051;-84
2022/08/21 08:18:24;;;;;;;11.07;3.85;;;19.00;98.80;;;;;;5053415;28;20049;-84
2022/08/21 08:20:52;;;;;;;15.23;3.22;;;19.00;98.50;;;;;;5054880;28;20072;-84
2022/08/21 08:23:19;;;;;;;10.48;3.13;;;19.10;98.60;;;;;;5057655;28;20056;-84
2022/08/21 08:25:47;;;;;;;13.88;4.18;;;19.10;98.40;;;;;;5056339;28;20049;-83
2022/08/21 08:28:15;;;;;;;5.75;2.65;;;19.20;98.30;;;;;;5062610;28;20037;-84
2022/08/21 08:30:45;;;;;;;8.57;2.58;;;19.30;98.10;;;;;;5062985;28;20037;-83
2022/08/21 08:33:14;;;;;;;13.60;3.92;;;19.30;97.90;;;;;;5058410;28;20522;-84
2022/08/21 08:35:47;;;;;;;13.68;3.33;;;19.30;97.80;;;;;;5047443;28;20045;-84
2022/08/21 08:38:20;;;;;;;8.07;2.30;;;19.30;97.80;;;;;;5055518;28;20049;-83
2022/08/21 08:41:15;;;;;;;10.50;3.10;;;19.40;97.60;;;;;;5061075;28;20068;-84
2022/08/21 08:43:51;;;;;;;8.95;3.53;;;19.50;97.30;;;;;;5053511;28;20045;-85
2022/08/21 08:46:32;;;;;;;11.18;2.38;;;19.40;97.20;;;;;;5065295;28;20351;-85
2022/08/21 08:49:18;;;;;;;8.57;2.20;;;19.50;97.00;;;;;;5067163;28;20059;-84
2022/08/21 08:51:51;;;;;;;11.85;3.10;;;19.50;96.70;;;;;;5065941;28;20041;-83
2022/08/21 08:54:43;;;;;;;16.67;3.00;;;19.60;96.50;;;;;;5067429;28;20044;-83
2022/08/21 08:57:17;;;;;;;14.68;3.50;;;19.60;96.50;;;;;;5066424;28;20053;-83
2022/08/21 08:59:48;;;;;;;12.32;1.92;;;19.70;96.10;;;;;;5066873;28;20091;-83
2022/08/21 09:02:18;;;;;;;11.70;2.17;;;19.70;95.40;;;;;;5066358;28;20053;-84
2022/08/21 09:04:48;;;;;;;10.07;2.38;;;19.70;95.80;;;;;;5032845;28;20664;-83
2022/08/21 09:07:38;;;;;;;13.40;3.28;;;19.80;95.60;;;;;;5058483;28;20071;-83
2022/08/21 09:10:13;;;;;;;9.97;2.77;;;19.80;95.10;;;;;;5052122;28;20041;-84
2022/08/21 09:13:11;;;;;;;7.88;2.20;;;19.80;94.90;;;;;;5050014;28;20051;-85
2022/08/21 09:16:10;;;;;;;8.88;2.97;;;19.90;94.10;;;;;;5082491;28;20043;-84
2022/08/21 09:18:46;;;;;;;8.32;2.35;;;20.00;94.20;;;;;;5051222;28;20037;-84
2022/08/21 09:21:14;;;;;;;7.10;2.00;;;20.10;94.40;;;;;;5083558;28;20055;-85
2022/08/21 09:24:00;;;;;;;11.90;2.20;;;20.20;94.40;;;;;;5049957;28;20047;-86
2022/08/21 09:26:40;;;;;;;8.00;2.20;;;20.30;93.70;;;;;;5068126;28;20499;-86
2022/08/21 09:29:12;;;;;;;10.48;2.35;;;20.40;93.80;;;;;;5068256;28;20039;-86
2022/08/21 09:31:39;;;;;;;13.48;2.08;;;20.50;93.20;;;;;;5082381;28;20045;-86
2022/08/21 09:34:13;;;;;;;11.65;1.85;;;20.50;92.90;;;;;;5065476;28;20033;-87
2022/08/21 09:36:49;;;;;;;6.88;2.15;;;20.60;92.50;;;;;;5062641;28;20025;-86
2022/08/21 09:39:27;;;;;;;11.60;2.15;;;20.60;92.70;;;;;;5065538;28;20063;-84
2022/08/21 09:42:03;;;;;;;13.52;1.75;;;20.60;92.50;;;;;;5081554;28;20048;-91
2022/08/21 09:44:40;;;;;;;7.10;2.05;;;20.70;91.80;;;;;;5065580;28;20044;-90
2022/08/21 09:47:09;;;;;;;9.88;3.08;;;20.80;91.90;;;;;;5047686;28;20047;-89
2022/08/21 09:49:39;;;;;;;2.38;1.45;;;20.90;91.50;;;;;;5061437;28;20044;-88
2022/08/21 09:52:24;;;;;;;10.60;2.13;;;21.00;91.10;;;;;;5048974;28;20056;-88
2022/08/21 09:54:55;;;;;;;9.45;3.22;;;21.00;90.30;;;;;;5067324;28;20043;-88
2022/08/21 09:57:41;;;;;;;3.13;1.65;;;21.00;89.60;;;;;;5067362;28;20048;-91
2022/08/21 10:00:39;;;;;;;15.70;1.77;;;21.00;89.80;;;;;;5062831;28;20360;-89
2022/08/21 10:03:16;;;;;;;11.32;1.52;;;21.00;88.80;;;;;;5062811;28;20085;-89
2022/08/21 10:05:53;;;;;;;7.53;2.00;;;21.10;89.00;;;;;;5048278;28;20035;-86
2022/08/21 10:08:22;;;;;;;9.93;3.33;;;21.30;88.50;;;;;;5082142;28;20045;-87
2022/08/21 10:10:57;;;;;;;7.50;1.95;;;21.40;89.50;;;;;;5056829;28;20040;-89
2022/08/21 10:13:58;;;;;;;7.57;2.28;;;21.50;89.20;;;;;;5053255;28;20046;-89
2022/08/21 10:16:51;;;;;;;4.53;2.15;;;21.70;88.80;;;;;;5067727;28;20520;-92
2022/08/21 10:19:26;;;;;;;8.95;2.05;;;21.80;87.80;;;;;;5067767;28;20057;-87
2022/08/21 10:22:09;;;;;;;10.88;3.90;;;21.90;87.60;;;;;;5050997;28;20059;-93
2022/08/21 10:25:00;;;;;;;11.55;2.13;;;21.90;86.70;;;;;;5063875;28;20040;-92
2022/08/21 10:27:34;;;;;;;9.32;2.67;;;22.00;86.30;;;;;;5061228;28;20045;-93
2022/08/21 10:30:16;;;;;;;9.38;2.97;;;22.20;86.60;;;;;;5070978;28;20497;-88
2022/08/21 10:33:04;;;;;;;11.45;2.05;;;22.40;85.90;;;;;;5052749;28;20044;-88
2022/08/21 10:36:00;;;;;;;13.45;2.75;;;22.60;85.80;;;;;;5051990;28;20037;-90
2022/08/21 10:38:55;;;;;;;8.80;2.65;;;22.80;84.60;;;;;;5056486;28;20052;-89
2022/08/21 10:42:00;;;;;;;8.45;2.28;;;23.10;84.30;;;;;;5054939;28;20059;-88
2022/08/21 10:44:45;;;;;;;10.02;1.67;;;23.20;83.60;;;;;;5052297;28;20048;-88
2022/08/21 10:47:32;;;;;;;12.63;4.00;;;23.30;83.00;;;;;;5069533;28;20069;-88
2022/08/21 10:50:24;;;;;;;10.70;2.92;;;23.50;82.10;;;;;;5057290;28;20572;-89
2022/08/21 10:53:15;;;;;;;9.70;1.80;;;23.60;81.90;;;;;;5061020;28;20063;-89
2022/08/21 10:56:05;;;;;;;5.72;1.50;;;23.60;81.40;;;;;;5040529;28;20053;-92
2022/08/21 10:58:56;;;;;;;6.05;1.83;;;23.50;81.10;;;;;;5057611;28;20048;-86
2022/08/21 11:01:44;;;;;;;15.00;2.80;;;23.60;81.30;;;;;;5038185;28;20570;-89
2022/08/21 11:04:40;;;;;;;7.63;2.08;;;23.50;81.70;;;;;;5077953;28;20053;-88
2022/08/21 11:07:26;;;;;;;13.93;4.50;;;23.50;82.00;;;;;;5059684;28;20041;-93
2022/08/21 11:10:19;;;;;;;14.43;2.35;;;23.60;81.30;;;;;;5074528;28;20052;-92
2022/08/21 11:12:53;;;;;;;11.73;2.22;;;23.60;82.00;;;;;;5075641;28;20063;-87
2022/08/21 11:15:26;;;;;;;8.52;2.47;;;23.70;81.90;;;;;;5060142;28;20029;-88
2022/08/21 11:18:16;;;;;;;6.38;3.00;;;23.80;81.70;;;;;;5045778;28;20051;-86
2022/08/21 11:21:03;;;;;;;6.45;1.90;;;23.80;80.30;;;;;;5059352;28;20483;-91
2022/08/21 11:23:41;;;;;;;6.30;1.33;;;23.70;79.70;;;;;;5045449;28;20499;-89
2022/08/21 11:26:17;;;;;;;11.65;1.95;;;23.70;80.10;;;;;;5064648;28;20466;-87
2022/08/21 11:28:52;;;;;;;9.10;1.70;;;23.70;80.30;;;;;;5064530;28;20044;-90
2022/08/21 11:31:43;;;;;;;11.02;1.75;;;23.70;80.40;;;;;;5043907;28;20053;-87
2022/08/21 11:34:32;;;;;;;11.57;2.65;;;23.80;80.20;;;;;;5064380;28;20055;-89
2022/08/21 11:37:10;;;;;;;11.80;2.67;;;23.70;79.70;;;;;;5065306;28;20055;-87
2022/08/21 11:40:25;;;;;;;4.93;1.50;;;23.70;79.60;;;;;;5061197;28;20044;-89
2022/08/21 11:43:36;;;;;;;20.85;2.72;;;23.60;78.20;;;;;;5049198;28;20080;-89
2022/08/21 11:46:40;;;;;;;6.47;1.63;;;23.50;79.20;;;;;;5049980;28;20045;-89
2022/08/21 11:49:46;;;;;;;4.00;1.77;;;23.40;79.20;;;;;;5061278;28;20335;-90
2022/08/21 11:52:56;;;;;;;7.55;1.52;;;23.40;79.60;;;;;;5058630;28;20045;-91
2022/08/21 11:55:34;;;;;;;9.73;2.03;;;23.40;79.70;;;;;;5077123;28;20167;-89
2022/08/21 11:58:20;;;;;;;2.80;1.52;;;23.40;80.20;;;;;;5082659;28;20041;-84
2022/08/21 12:01:00;;;;;;;7.07;1.90;;;23.30;80.20;;;;;;5057189;28;20059;-89
2022/08/21 12:03:33;;;;;;;9.23;2.08;;;23.40;80.40;;;;;;5040997;28;20050;-85
2022/08/21 12:06:08;;;;;;;6.78;1.73;;;23.30;80.40;;;;;;5071568;28;20037;-87
2022/08/21 12:08:42;;;;;;;6.20;1.67;;;23.40;80.50;;;;;;5057741;28;20045;-90
2022/08/21 12:11:23;;;;;;;2.90;1.35;;;23.40;80.80;;;;;;5056957;28;20045;-86
2022/08/21 12:14:04;;;;;;;9.15;2.25;;;23.50;80.50;;;;;;5040084;28;21091;-92
2022/08/21 12:16:40;;;;;;;14.52;2.17;;;23.60;79.80;;;;;;5073690;28;20037;-90
2022/08/21 12:19:20;;;;;;;7.68;2.22;;;23.70;80.50;;;;;;5071810;28;20051;-89
2022/08/21 12:22:14;;;;;;;10.38;1.77;;;23.80;79.20;;;;;;5053463;28;20056;-91
2022/08/21 12:24:50;;;;;;;13.75;2.70;;;24.00;78.90;;;;;;5054206;28;20064;-92
2022/08/21 12:27:30;;;;;;;7.75;2.20;;;24.00;79.20;;;;;;5057509;28;20488;-87
2022/08/21 12:30:18;;;;;;;14.05;1.52;;;24.00;78.40;;;;;;5057149;28;20075;-87
2022/08/21 12:33:02;;;;;;;7.35;1.27;;;24.10;78.60;;;;;;5069946;28;20045;-89
2022/08/21 12:35:43;;;;;;;7.55;2.58;;;24.10;78.10;;;;;;5055534;28;20052;-91
2022/08/21 12:38:27;;;;;;;6.88;2.03;;;24.10;77.90;;;;;;5058521;28;20060;-89
2022/08/21 12:40:59;;;;;;;16.52;2.45;;;24.30;77.50;;;;;;5043499;28;20045;-89
2022/08/21 12:43:45;;;;;;;10.88;1.88;;;24.30;77.80;;;;;;5055079;28;20052;-87
2022/08/21 12:46:20;;;;;;;12.65;2.38;;;24.40;78.10;;;;;;5056721;28;20049;-89
2022/08/21 12:48:57;;;;;;;7.85;1.73;;;24.40;78.20;;;;;;5054555;28;20359;-89
2022/08/21 12:51:48;;;;;;;8.60;2.20;;;24.40;78.30;;;;;;5051997;28;20057;-89
2022/08/21 12:54:28;;;;;;;9.35;2.42;;;24.40;78.00;;;;;;5032763;28;20061;-89
2022/08/21 12:57:04;;;;;;;9.35;2.10;;;24.40;78.00;;;;;;5045457;28;20048;-89
2022/08/21 12:59:37;;;;;;;10.70;1.85;;;24.50;77.70;;;;;;5052045;28;20045;-87
2022/08/21 13:02:19;;;;;;;7.07;1.92;;;24.60;77.80;;;;;;5056060;28;20048;-86
2022/08/21 13:04:49;;;;;;;11.73;2.95;;;24.60;76.40;;;;;;5051527;28;20053;-86
2022/08/21 13:07:25;;;;;;;6.35;1.45;;;24.70;77.50;;;;;;5069632;28;20060;-86
2022/08/21 13:10:01;;;;;;;14.15;2.50;;;24.80;77.10;;;;;;5045810;28;20154;-87
2022/08/21 13:12:30;;;;;;;10.80;1.90;;;24.90;77.30;;;;;;5036137;28;20512;-87